createdAt,value
2023-01-31T00:01:42.671Z,14.70
2023-01-31T00:04:12.804Z,15.40
2023-01-31T00:06:44.809Z,12.50
2023-01-31T00:09:16.122Z,13.10
2023-01-31T00:11:44.440Z,15.80
2023-01-31T00:14:20.921Z,14.80
2023-01-31T00:16:49.627Z,11.60
2023-01-31T00:19:20.296Z,13.70
2023-01-31T00:21:49.674Z,13.20
2023-01-31T00:24:17.929Z,15.10
2023-01-31T00:26:57.595Z,11.80
2023-01-31T00:29:29.447Z,17.10
2023-01-31T00:31:57.926Z,12.70
2023-01-31T00:34:28.824Z,16.20
2023-01-31T00:36:57.135Z,16.80
2023-01-31T00:39:25.307Z,17.80
2023-01-31T00:41:53.450Z,18.00
2023-01-31T00:44:21.625Z,19.10
2023-01-31T00:46:50.639Z,17.30
2023-01-31T00:49:18.899Z,17.20
2023-01-31T00:51:47.720Z,15.10
2023-01-31T00:54:18.855Z,16.40
2023-01-31T00:57:20.026Z,16.80
2023-01-31T00:59:48.455Z,17.30
2023-01-31T01:02:16.744Z,21.90
2023-01-31T01:04:45.432Z,14.60
2023-01-31T01:07:14.701Z,18.70
2023-01-31T01:09:45.406Z,19.00
2023-01-31T01:12:15.779Z,18.40
2023-01-31T01:14:44.069Z,19.50
2023-01-31T01:17:12.331Z,20.60
2023-01-31T01:19:41.964Z,17.50
2023-01-31T01:22:16.418Z,17.40
2023-01-31T01:24:45.774Z,17.50
2023-01-31T01:27:17.077Z,22.30
2023-01-31T01:29:46.412Z,19.10
2023-01-31T01:32:16.738Z,20.30
2023-01-31T01:34:45.871Z,16.60
2023-01-31T01:37:20.455Z,18.40
2023-01-31T01:39:52.812Z,17.60
2023-01-31T01:42:54.834Z,15.30
2023-01-31T01:45:23.547Z,18.60
2023-01-31T01:48:01.606Z,17.50
2023-01-31T01:50:31.145Z,16.70
2023-01-31T01:53:17.963Z,17.20
2023-01-31T01:56:12.463Z,17.50
2023-01-31T01:59:43.997Z,20.70
2023-01-31T02:02:14.540Z,19.00
2023-01-31T02:04:48.128Z,13.00
2023-01-31T02:07:17.954Z,21.50
2023-01-31T02:10:25.261Z,14.70
2023-01-31T02:12:53.711Z,25.10
2023-01-31T02:15:24.739Z,16.50
2023-01-31T02:17:54.444Z,18.70
2023-01-31T02:20:59.164Z,16.70
2023-01-31T02:24:47.175Z,20.60
2023-01-31T02:27:39.275Z,15.70
2023-01-31T02:30:46.780Z,17.10
2023-01-31T02:33:55.730Z,17.30
2023-01-31T02:36:53.326Z,22.50
2023-01-31T02:39:27.411Z,13.50
2023-01-31T02:42:20.597Z,17.70
2023-01-31T02:45:38.089Z,19.30
2023-01-31T02:48:54.349Z,21.10
2023-01-31T02:51:29.933Z,18.40
2023-01-31T02:54:07.853Z,15.90
2023-01-31T02:56:38.677Z,16.60
2023-01-31T02:59:27.116Z,18.80
2023-01-31T03:02:02.524Z,16.10
2023-01-31T03:04:36.938Z,18.50
2023-01-31T03:08:10.574Z,16.40
2023-01-31T03:10:59.628Z,12.90
2023-01-31T03:13:59.754Z,16.60
2023-01-31T03:17:08.018Z,16.50
2023-01-31T03:19:55.459Z,23.50
2023-01-31T03:22:30.449Z,15.70
2023-01-31T03:24:59.604Z,13.50
2023-01-31T03:27:29.731Z,19.50
2023-01-31T03:30:05.873Z,15.20
2023-01-31T03:32:41.258Z,17.40
2023-01-31T03:35:10.234Z,16.30
2023-01-31T03:37:53.230Z,14.00
2023-01-31T03:40:30.988Z,17.00
2023-01-31T03:43:19.632Z,17.90
2023-01-31T03:46:02.848Z,14.60
2023-01-31T03:49:13.408Z,11.60
2023-01-31T03:51:53.278Z,15.80
2023-01-31T03:54:46.630Z,18.00
2023-01-31T03:57:38.763Z,16.30
2023-01-31T04:00:59.443Z,14.30
2023-01-31T04:03:48.472Z,15.60
2023-01-31T04:06:37.081Z,18.80
2023-01-31T04:09:07.943Z,16.50
2023-01-31T04:11:39.784Z,15.80
2023-01-31T04:14:10.062Z,17.20
2023-01-31T04:16:40.207Z,17.00
2023-01-31T04:19:08.673Z,12.00
2023-01-31T04:21:37.381Z,13.10
2023-01-31T04:24:06.078Z,13.80
2023-01-31T04:26:34.424Z,13.50
2023-01-31T04:29:04.382Z,16.30
2023-01-31T04:31:34.290Z,11.40
2023-01-31T04:34:02.833Z,14.70
2023-01-31T04:36:31.231Z,15.10
2023-01-31T04:39:01.876Z,14.80
2023-01-31T04:41:35.864Z,13.60
2023-01-31T04:44:15.657Z,9.30
2023-01-31T04:46:49.447Z,17.10
2023-01-31T04:49:19.312Z,15.70
2023-01-31T04:51:53.519Z,15.00
2023-01-31T04:54:23.297Z,14.70
2023-01-31T04:56:53.708Z,13.90
2023-01-31T04:59:21.935Z,15.60
2023-01-31T05:01:51.139Z,13.60
2023-01-31T05:04:26.620Z,13.10
2023-01-31T05:06:58.930Z,14.60
2023-01-31T05:09:27.322Z,18.10
2023-01-31T05:11:55.606Z,15.10
2023-01-31T05:14:25.690Z,16.00
2023-01-31T05:16:54.195Z,17.60
2023-01-31T05:19:22.570Z,16.90
2023-01-31T05:21:58.518Z,13.00
2023-01-31T05:24:30.277Z,16.00
2023-01-31T05:29:35.256Z,13.80
2023-01-31T05:32:04.275Z,11.20
2023-01-31T05:34:33.683Z,13.30
2023-01-31T05:37:02.770Z,13.00
2023-01-31T05:39:31.341Z,10.60
2023-01-31T05:42:20.685Z,10.80
2023-01-31T05:44:49.132Z,11.40
2023-01-31T05:47:17.444Z,13.20
2023-01-31T05:49:47.763Z,17.50
2023-01-31T05:52:18.241Z,18.20
2023-01-31T05:54:47.057Z,14.90
2023-01-31T05:57:16.446Z,20.90
2023-01-31T05:59:45.037Z,11.70
2023-01-31T06:02:14.689Z,13.20
2023-01-31T06:05:01.909Z,18.80
2023-01-31T06:07:33.889Z,12.80
2023-01-31T06:10:02.433Z,12.80
2023-01-31T06:12:35.777Z,16.60
2023-01-31T06:15:07.295Z,14.60
2023-01-31T06:17:37.394Z,10.80
2023-01-31T06:20:06.147Z,45.10
2023-01-31T06:22:34.936Z,29.10
2023-01-31T06:25:03.375Z,18.40
2023-01-31T06:27:33.505Z,27.90
2023-01-31T06:30:02.010Z,13.80
2023-01-31T06:32:32.950Z,12.70
2023-01-31T06:35:05.644Z,10.50
2023-01-31T06:37:36.944Z,11.00
2023-01-31T06:40:05.706Z,16.50
2023-01-31T06:42:33.928Z,10.70
2023-01-31T06:45:02.285Z,9.80
2023-01-31T06:47:32.782Z,11.10
2023-01-31T06:50:01.107Z,12.70
2023-01-31T06:52:29.449Z,12.90
2023-01-31T06:54:57.736Z,18.10
2023-01-31T06:57:25.976Z,23.10
2023-01-31T06:59:54.335Z,16.20
2023-01-31T07:02:22.638Z,12.20
2023-01-31T07:04:51.828Z,14.90
2023-01-31T07:07:20.182Z,10.00
2023-01-31T07:09:48.450Z,12.30
2023-01-31T07:12:16.883Z,12.00
2023-01-31T07:14:47.721Z,10.10
2023-01-31T07:17:16.135Z,8.50
2023-01-31T07:19:46.635Z,8.60
2023-01-31T07:22:14.993Z,10.30
2023-01-31T07:24:43.266Z,9.70
2023-01-31T07:27:14.951Z,9.70
2023-01-31T07:29:44.129Z,9.80
2023-01-31T07:32:12.969Z,11.00
2023-01-31T07:34:41.326Z,11.60
2023-01-31T07:37:09.713Z,13.80
2023-01-31T07:39:37.924Z,10.90
2023-01-31T07:42:06.359Z,16.20
2023-01-31T07:44:34.583Z,14.10
2023-01-31T07:47:02.799Z,13.10
2023-01-31T07:49:30.981Z,15.30
2023-01-31T07:52:02.270Z,11.10
2023-01-31T07:54:33.189Z,15.30
2023-01-31T07:57:01.411Z,13.90
2023-01-31T07:59:31.975Z,17.00
2023-01-31T08:02:29.547Z,12.50
2023-01-31T08:04:58.086Z,12.80
2023-01-31T08:07:27.428Z,11.60
2023-01-31T08:09:56.236Z,15.90
2023-01-31T08:12:24.500Z,16.80
2023-01-31T08:14:59.873Z,13.60
2023-01-31T08:17:34.619Z,10.50
2023-01-31T08:20:05.230Z,19.00
2023-01-31T08:22:33.395Z,13.30
2023-01-31T08:25:01.576Z,11.60
2023-01-31T08:27:30.342Z,16.50
2023-01-31T08:29:58.680Z,12.20
2023-01-31T08:32:28.336Z,12.20
2023-01-31T08:34:56.644Z,16.10
2023-01-31T08:37:26.372Z,11.10
2023-01-31T08:39:56.019Z,9.20
2023-01-31T08:42:24.317Z,10.30
2023-01-31T08:44:52.612Z,13.10
2023-01-31T08:47:20.945Z,7.40
2023-01-31T08:49:51.181Z,8.30
2023-01-31T08:52:21.124Z,8.80
2023-01-31T08:54:53.549Z,8.20
2023-01-31T08:57:21.962Z,9.30
2023-01-31T08:59:52.348Z,10.80
2023-01-31T09:02:20.598Z,11.40
2023-01-31T09:04:50.421Z,10.50
2023-01-31T09:07:21.874Z,9.20
2023-01-31T09:09:52.390Z,14.20
2023-01-31T09:12:40.655Z,11.80
2023-01-31T09:15:09.385Z,14.50
2023-01-31T09:17:39.219Z,9.50
2023-01-31T09:20:10.551Z,13.40
2023-01-31T09:22:41.163Z,13.60
2023-01-31T09:25:09.892Z,12.80
2023-01-31T09:27:39.063Z,11.10
2023-01-31T09:30:09.260Z,8.80
2023-01-31T09:32:38.979Z,10.10
2023-01-31T09:35:08.579Z,11.50
2023-01-31T09:37:39.824Z,12.10
2023-01-31T09:40:12.340Z,12.70
2023-01-31T09:42:45.410Z,15.40
2023-01-31T09:45:17.277Z,13.20
2023-01-31T09:47:52.819Z,12.80
2023-01-31T09:50:26.900Z,11.20
2023-01-31T09:55:52.071Z,12.20
2023-01-31T09:58:48.190Z,14.80
2023-01-31T10:01:30.529Z,11.30
2023-01-31T10:04:08.438Z,11.80
2023-01-31T10:06:48.273Z,13.70
2023-01-31T10:09:20.815Z,9.60
2023-01-31T10:12:25.444Z,12.60
2023-01-31T10:15:01.776Z,11.70
2023-01-31T10:17:37.377Z,10.80
2023-01-31T10:20:36.711Z,8.00
2023-01-31T10:23:12.076Z,9.90
2023-01-31T10:25:54.278Z,7.40
2023-01-31T10:28:43.344Z,8.80
2023-01-31T10:31:39.116Z,10.30
2023-01-31T10:34:20.105Z,10.20
2023-01-31T10:36:57.524Z,9.00
2023-01-31T10:39:40.816Z,7.10
2023-01-31T10:42:23.013Z,10.80
2023-01-31T10:45:03.701Z,10.40
2023-01-31T10:47:53.439Z,11.90
2023-01-31T10:50:45.190Z,7.00
2023-01-31T10:53:34.167Z,10.10
2023-01-31T10:56:37.860Z,11.80
2023-01-31T10:59:13.103Z,9.80
2023-01-31T11:01:43.478Z,13.20
2023-01-31T11:04:43.412Z,9.00
2023-01-31T11:07:12.885Z,13.00
2023-01-31T11:09:54.541Z,11.40
2023-01-31T11:12:41.039Z,8.20
2023-01-31T11:15:18.416Z,10.60
2023-01-31T11:17:48.017Z,9.10
2023-01-31T11:20:24.489Z,7.40
2023-01-31T11:22:54.621Z,9.70
2023-01-31T11:25:25.038Z,8.70
2023-01-31T11:27:57.749Z,12.80
2023-01-31T11:30:36.311Z,10.80
2023-01-31T11:33:05.480Z,8.00
2023-01-31T11:35:35.946Z,6.70
2023-01-31T11:38:09.707Z,6.60
2023-01-31T11:40:42.925Z,8.70
2023-01-31T11:43:16.997Z,10.10
2023-01-31T11:48:29.367Z,14.50
2023-01-31T11:53:40.433Z,12.80
2023-01-31T11:56:22.978Z,11.60
2023-01-31T11:58:56.719Z,14.40
2023-01-31T12:01:26.855Z,12.00
2023-01-31T12:04:05.074Z,13.10
2023-01-31T12:06:41.023Z,13.90
2023-01-31T12:09:27.764Z,15.60
2023-01-31T12:11:58.599Z,11.80
2023-01-31T12:14:39.906Z,13.50
2023-01-31T12:17:14.999Z,14.90
2023-01-31T12:20:26.687Z,15.30
2023-01-31T12:23:11.846Z,16.00
2023-01-31T12:26:03.853Z,12.40
2023-01-31T12:28:43.077Z,15.50
2023-01-31T12:31:36.654Z,9.70
2023-01-31T12:34:32.224Z,14.40
2023-01-31T12:37:43.324Z,11.60
2023-01-31T12:40:29.549Z,10.80
2023-01-31T12:43:06.205Z,13.10
2023-01-31T12:46:01.280Z,12.00
2023-01-31T12:49:08.933Z,10.30
2023-01-31T12:52:00.144Z,10.60
2023-01-31T12:55:00.522Z,11.20
2023-01-31T12:57:52.238Z,8.70
2023-01-31T13:00:35.464Z,9.30
2023-01-31T13:03:18.871Z,9.70
2023-01-31T13:06:20.482Z,9.20
2023-01-31T13:09:36.879Z,11.80
2023-01-31T13:15:04.620Z,11.00
2023-01-31T13:17:40.688Z,9.20
2023-01-31T13:20:41.238Z,9.90
2023-01-31T13:23:20.223Z,10.30
2023-01-31T13:26:06.715Z,11.60
2023-01-31T13:28:49.062Z,12.80
2023-01-31T13:31:37.116Z,13.10
2023-01-31T13:34:09.238Z,13.40
2023-01-31T13:36:46.801Z,10.20
2023-01-31T13:39:24.547Z,12.80
2023-01-31T13:41:54.556Z,10.30
2023-01-31T13:44:23.448Z,13.00
2023-01-31T13:47:05.442Z,11.30
2023-01-31T13:52:27.396Z,15.20
2023-01-31T13:55:06.618Z,10.30
2023-01-31T13:57:47.186Z,10.00
2023-01-31T14:00:24.648Z,8.40
2023-01-31T14:03:05.599Z,14.70
2023-01-31T14:05:45.823Z,9.40
2023-01-31T14:08:39.042Z,14.70
2023-01-31T14:11:30.890Z,7.80
2023-01-31T14:14:40.039Z,14.90
2023-01-31T14:17:31.251Z,9.40
2023-01-31T14:20:07.600Z,12.90
2023-01-31T14:22:38.987Z,11.60
2023-01-31T14:25:10.006Z,17.50
2023-01-31T14:28:01.820Z,12.60
2023-01-31T14:30:44.434Z,8.80
2023-01-31T14:33:33.516Z,9.10
2023-01-31T14:37:00.375Z,9.80
2023-01-31T14:39:42.255Z,9.00
2023-01-31T14:42:31.663Z,10.20
2023-01-31T14:45:17.735Z,9.30
2023-01-31T14:47:55.226Z,8.40
2023-01-31T14:50:38.917Z,12.80
2023-01-31T14:53:22.113Z,8.10
2023-01-31T14:56:17.764Z,9.90
2023-01-31T14:58:48.727Z,4.00
2023-01-31T15:01:21.390Z,2.90
2023-01-31T15:03:54.699Z,7.20
2023-01-31T15:06:27.414Z,3.50
2023-01-31T15:09:14.563Z,3.20
2023-01-31T15:11:46.610Z,6.10
2023-01-31T15:14:36.233Z,3.00
2023-01-31T15:17:32.106Z,5.80
2023-01-31T15:20:37.021Z,11.40
2023-01-31T15:23:09.335Z,6.40
2023-01-31T15:25:44.580Z,7.00
2023-01-31T15:28:35.645Z,9.10
2023-01-31T15:31:28.944Z,12.40
2023-01-31T15:34:01.920Z,16.20
2023-01-31T15:36:45.118Z,24.90
2023-01-31T15:39:29.687Z,29.80
2023-01-31T15:41:58.202Z,42.20
2023-01-31T15:44:29.556Z,73.80
2023-01-31T15:47:03.649Z,37.50
2023-01-31T15:49:42.040Z,36.30
2023-01-31T15:52:19.549Z,27.20
2023-01-31T15:54:53.877Z,52.70
2023-01-31T15:57:26.014Z,37.60
2023-01-31T15:59:56.445Z,18.10
2023-01-31T16:02:30.957Z,21.70
2023-01-31T16:04:59.815Z,25.20
2023-01-31T16:07:31.965Z,21.00
2023-01-31T16:10:04.603Z,25.70
2023-01-31T16:12:35.276Z,20.10
2023-01-31T16:15:07.685Z,13.00
2023-01-31T16:17:36.207Z,15.50
2023-01-31T16:20:41.010Z,19.80
2023-01-31T16:23:39.021Z,15.00
2023-01-31T16:26:13.461Z,14.60
2023-01-31T16:28:47.163Z,13.20
2023-01-31T16:31:18.358Z,12.00
2023-01-31T16:34:00.319Z,9.00
2023-01-31T16:37:30.728Z,12.30
2023-01-31T16:40:30.320Z,8.90
2023-01-31T16:43:18.131Z,11.40
2023-01-31T16:46:01.099Z,10.80
2023-01-31T16:48:40.621Z,10.60
2023-01-31T16:51:28.340Z,6.30
2023-01-31T16:54:11.818Z,11.70
2023-01-31T16:56:41.296Z,5.70
2023-01-31T16:59:34.759Z,8.90
2023-01-31T17:02:32.406Z,8.70
2023-01-31T17:05:16.939Z,7.80
2023-01-31T17:07:46.812Z,6.60
2023-01-31T17:10:27.447Z,6.70
2023-01-31T17:13:05.495Z,8.10
2023-01-31T17:15:33.792Z,8.60
2023-01-31T17:18:03.286Z,11.90
2023-01-31T17:20:31.690Z,13.20
2023-01-31T17:23:03.752Z,7.40
2023-01-31T17:25:46.605Z,7.30
2023-01-31T17:28:16.132Z,10.70
2023-01-31T17:30:46.520Z,12.10
2023-01-31T17:33:16.601Z,6.40
2023-01-31T17:35:48.062Z,10.20
2023-01-31T17:38:19.475Z,10.30
2023-01-31T17:40:49.698Z,56.70
2023-01-31T17:43:22.497Z,117.00
2023-01-31T17:45:53.301Z,138.00
2023-01-31T17:48:26.760Z,159.80
2023-01-31T17:50:55.419Z,240.80
2023-01-31T17:53:25.460Z,119.40
2023-01-31T17:55:53.679Z,56.20
2023-01-31T17:58:23.168Z,112.60
2023-01-31T18:00:51.363Z,102.10
2023-01-31T18:03:27.640Z,55.80
2023-01-31T18:06:03.695Z,26.90
2023-01-31T18:08:32.133Z,71.80
2023-01-31T18:11:08.434Z,45.30
2023-01-31T18:13:38.748Z,43.70
2023-01-31T18:16:08.483Z,41.80
2023-01-31T18:18:40.664Z,46.30
2023-01-31T18:21:13.441Z,28.30
2023-01-31T18:23:41.713Z,14.80
2023-01-31T18:26:11.867Z,23.00
2023-01-31T18:28:40.075Z,26.30
2023-01-31T18:31:14.117Z,19.40
2023-01-31T18:33:44.762Z,20.30
2023-01-31T18:36:18.423Z,22.80
2023-01-31T18:38:48.765Z,17.10
2023-01-31T18:41:19.636Z,30.20
2023-01-31T18:43:49.294Z,22.10
2023-01-31T18:46:17.692Z,16.20
2023-01-31T18:48:46.081Z,9.50
2023-01-31T18:51:15.835Z,16.90
2023-01-31T18:53:47.582Z,16.10
2023-01-31T18:56:21.190Z,14.10
2023-01-31T18:58:52.680Z,14.00
2023-01-31T19:01:23.689Z,16.20
2023-01-31T19:03:53.900Z,19.10
2023-01-31T19:06:30.081Z,13.10
2023-01-31T19:08:58.743Z,14.90
2023-01-31T19:11:29.485Z,17.30
2023-01-31T19:13:58.695Z,14.90
2023-01-31T19:16:29.019Z,15.10
2023-01-31T19:18:58.036Z,12.80
2023-01-31T19:21:28.613Z,12.20
2023-01-31T19:24:03.743Z,11.30
2023-01-31T19:26:33.515Z,10.50
2023-01-31T19:29:05.087Z,7.80
2023-01-31T19:31:34.905Z,12.60
2023-01-31T19:34:07.029Z,8.50
2023-01-31T19:36:40.879Z,12.30
2023-01-31T19:39:11.836Z,11.70
2023-01-31T19:41:41.738Z,11.80
2023-01-31T19:44:11.541Z,14.60
2023-01-31T19:46:40.430Z,15.70
2023-01-31T19:49:10.411Z,13.10
2023-01-31T19:51:42.048Z,14.40
2023-01-31T19:54:14.542Z,13.10
2023-01-31T19:56:43.540Z,17.90
2023-01-31T19:59:12.935Z,12.10
2023-01-31T20:01:41.317Z,15.50
2023-01-31T20:04:09.601Z,21.70
2023-01-31T20:06:37.849Z,13.30
2023-01-31T20:09:07.604Z,14.80
2023-01-31T20:11:36.981Z,15.60
2023-01-31T20:14:06.704Z,14.70
2023-01-31T20:16:35.120Z,13.50
2023-01-31T20:19:04.538Z,10.30
2023-01-31T20:21:33.208Z,14.30
2023-01-31T20:24:01.469Z,13.00
2023-01-31T20:26:30.079Z,17.80
2023-01-31T20:28:58.609Z,14.20
2023-01-31T20:31:26.899Z,18.30
2023-01-31T20:33:55.807Z,17.20
2023-01-31T20:36:24.160Z,226.20
2023-01-31T20:38:52.708Z,48.80
2023-01-31T20:41:22.648Z,52.20
2023-01-31T20:43:51.613Z,30.60
2023-01-31T20:46:39.797Z,23.50
2023-01-31T20:49:09.774Z,16.10
2023-01-31T20:51:39.131Z,22.20
2023-01-31T20:54:07.463Z,17.50
2023-01-31T20:56:37.816Z,13.80
2023-01-31T20:59:08.080Z,26.90
2023-01-31T21:01:36.796Z,29.40
2023-01-31T21:04:08.239Z,22.60
2023-01-31T21:06:36.504Z,14.40
2023-01-31T21:09:04.741Z,11.40
2023-01-31T21:11:33.109Z,14.90
2023-01-31T21:14:01.529Z,18.60
2023-01-31T21:16:32.327Z,17.10
2023-01-31T21:19:00.561Z,16.60
2023-01-31T21:21:28.889Z,20.80
2023-01-31T21:23:59.676Z,13.60
2023-01-31T21:26:30.569Z,8.90
2023-01-31T21:29:02.649Z,14.20
2023-01-31T21:31:31.686Z,16.80
2023-01-31T21:34:05.672Z,29.30
2023-01-31T21:36:36.296Z,20.10
2023-01-31T21:39:04.568Z,13.80
2023-01-31T21:41:51.752Z,16.30
2023-01-31T21:44:20.043Z,16.70
2023-01-31T21:46:49.768Z,10.20
2023-01-31T21:49:18.054Z,18.60
2023-01-31T21:51:46.371Z,14.60
2023-01-31T21:54:15.225Z,14.10
2023-01-31T21:56:43.489Z,12.10
2023-01-31T21:59:12.294Z,18.00
2023-01-31T22:01:40.598Z,15.30
2023-01-31T22:04:08.804Z,16.10
2023-01-31T22:06:42.319Z,18.40
2023-01-31T22:09:13.665Z,15.20
2023-01-31T22:11:42.771Z,18.00
2023-01-31T22:14:16.667Z,14.50
2023-01-31T22:16:47.087Z,9.20
2023-01-31T22:19:15.336Z,11.90
2023-01-31T22:21:43.686Z,13.50
2023-01-31T22:24:11.957Z,15.90
2023-01-31T22:26:42.833Z,14.20
2023-01-31T22:29:16.023Z,10.60
2023-01-31T22:31:45.023Z,9.30
2023-01-31T22:34:15.247Z,13.20
2023-01-31T22:36:43.878Z,14.50
2023-01-31T22:39:14.304Z,9.20
2023-01-31T22:41:44.884Z,11.40
2023-01-31T22:44:17.201Z,15.30
2023-01-31T22:46:45.467Z,9.30
2023-01-31T22:49:13.739Z,19.40
2023-01-31T22:51:43.816Z,11.90
2023-01-31T22:54:12.330Z,12.00
2023-01-31T22:56:41.247Z,10.70
2023-01-31T22:59:09.941Z,14.20
2023-01-31T23:01:38.693Z,13.70
2023-01-31T23:04:08.908Z,14.50
2023-01-31T23:06:38.190Z,9.70
2023-01-31T23:09:08.582Z,10.40
2023-01-31T23:11:37.897Z,18.70
2023-01-31T23:14:06.225Z,9.50
2023-01-31T23:17:00.588Z,8.20
2023-01-31T23:19:29.233Z,16.50
2023-01-31T23:21:57.424Z,10.60
2023-01-31T23:24:26.287Z,12.00
2023-01-31T23:26:54.979Z,11.80
2023-01-31T23:29:23.321Z,14.60
2023-01-31T23:31:51.612Z,11.40
2023-01-31T23:34:19.915Z,11.90
2023-01-31T23:36:48.201Z,15.20
2023-01-31T23:39:17.698Z,8.50
2023-01-31T23:41:45.934Z,10.50
2023-01-31T23:44:14.498Z,7.00
2023-01-31T23:46:45.031Z,11.10
2023-01-31T23:49:13.278Z,8.30
2023-01-31T23:51:41.654Z,14.10
2023-01-31T23:54:10.787Z,9.50
2023-01-31T23:56:39.661Z,8.60
2023-01-31T23:59:08.222Z,8.00
